ADDS METAR Data INFO
IDs: Format: Raw Decoded Include TAF

Data at: 0158 UTC 17 Oct 2017

METAR for:KCTY (Cross City Arpt, FL, US)
Text:KCTY 170135Z AUTO 34003KT 10SM CLR 23/21 A3004 RMK AO2 T02310209
Temperature: 23.1°C ( 74°F)
Dewpoint: 20.9°C ( 70°F) [RH = 87%]
Pressure (altimeter):30.04 inches Hg (1017.4 mb)
Winds:from the NNW (340 degrees) at 3 MPH (3 knots; 1.5 m/s)
Visibility:10 or more sm (16+ km)
Ceiling:at least 12,000 feet AGL
Clouds:sky clear below 12,000 feet AGL
QC Flag:automated observation with no human augmentation